Time;durP1;ratioP1;P1;durP2;ratioP2;P2;SDS_P1;SDS_P2;PMS_P1;PMS_P2;Temp;Humidity;BMP_temperature;BMP_pressure;BME280_temperature;BME280_humidity;BME280_pressure;Samples;Min_cycle;Max_cycle;Signal;HPM_P1;HPM_P2
2022/03/12 00:00:49;;;;;;;;;;;-2.40;99.90;;;;;;5053869;28;19920;-74
2022/03/12 00:03:17;;;;;;;;;;;-2.30;99.90;;;;;;5052338;28;19925;-74
2022/03/12 00:05:52;;;;;;;;;;;-2.40;99.90;;;;;;5053865;28;20281;-75
2022/03/12 00:08:27;;;;;;;;;;;-2.40;99.90;;;;;;5052713;28;19921;-74
2022/03/12 00:10:53;;;;;;;;;;;-2.40;99.90;;;;;;5053465;28;20322;-74
2022/03/12 00:13:20;;;;;;;;;;;-2.40;99.90;;;;;;5054199;28;19917;-74
2022/03/12 00:15:47;;;;;;;;;;;-2.40;99.90;;;;;;5053565;28;19912;-74
2022/03/12 00:18:19;;;;;;;;;;;-2.40;99.90;;;;;;5052480;28;19916;-75
2022/03/12 00:20:48;;;;;;;;;;;-2.40;99.90;;;;;;5052113;28;19956;-75
2022/03/12 00:23:16;;;;;;;;;;;-2.40;99.90;;;;;;5053979;28;19932;-73
2022/03/12 00:25:43;;;;;;;;;;;-2.40;99.90;;;;;;5053506;28;19909;-73
2022/03/12 00:28:09;;;;;;;;;;;-2.50;99.90;;;;;;5053640;28;19916;-73
2022/03/12 00:30:35;;;;;;;;;;;-2.50;99.90;;;;;;5053271;28;19936;-74
2022/03/12 00:33:01;;;;;;;;;;;-2.60;99.90;;;;;;5052828;28;20361;-73
2022/03/12 00:35:26;;;;;;;;;;;-2.60;99.90;;;;;;5052974;28;19916;-74
2022/03/12 00:37:52;;;;;;;;;;;-2.60;99.90;;;;;;5051644;28;20363;-73
2022/03/12 00:40:19;;;;;;;;;;;-2.60;99.90;;;;;;5053158;28;19913;-74
2022/03/12 00:42:45;;;;;;;;;;;-2.60;99.90;;;;;;5053058;28;19931;-74
2022/03/12 00:45:11;;;;;;;;;;;-2.60;99.90;;;;;;5052994;28;19909;-73
2022/03/12 00:47:36;;;;;;;;;;;-2.70;99.90;;;;;;5053181;28;20192;-75
2022/03/12 00:50:02;;;;;;;;;;;-2.70;99.90;;;;;;5051524;28;19909;-75
2022/03/12 00:52:28;;;;;;;;;;;-2.70;99.90;;;;;;5051265;28;20281;-74
2022/03/12 00:54:54;;;;;;;;;;;-2.70;99.90;;;;;;5052705;28;19916;-73
2022/03/12 00:57:19;;;;;;;;;;;-2.70;99.90;;;;;;5052710;28;19916;-73
2022/03/12 00:59:45;;;;;;;;;;;-2.70;99.90;;;;;;5052774;28;19916;-72
2022/03/12 01:02:13;;;;;;;;;;;-2.60;99.90;;;;;;5050958;28;19920;-74
2022/03/12 01:04:39;;;;;;;;;;;-2.60;99.90;;;;;;5052537;28;20417;-73
2022/03/12 01:07:05;;;;;;;;;;;-2.60;99.90;;;;;;5051183;28;19956;-74
2022/03/12 01:09:30;;;;;;;;;;;-2.60;99.90;;;;;;5051042;28;20006;-74
2022/03/12 01:11:56;;;;;;;;;;;-2.70;99.90;;;;;;5052452;28;19920;-74
2022/03/12 01:14:22;;;;;;;;;;;-2.70;99.90;;;;;;5052680;28;19928;-73
2022/03/12 01:16:47;;;;;;;;;;;-2.80;99.90;;;;;;5050696;28;19932;-74
2022/03/12 01:19:15;;;;;;;;;;;-2.80;99.90;;;;;;5052583;28;19913;-75
2022/03/12 01:21:41;;;;;;;;;;;-2.90;99.90;;;;;;5050835;28;19932;-75
2022/03/12 01:24:06;;;;;;;;;;;-3.00;99.90;;;;;;5052522;28;20400;-75
2022/03/12 01:26:34;;;;;;;;;;;-3.00;99.90;;;;;;5052164;28;19924;-74
2022/03/12 01:29:00;;;;;;;;;;;-3.10;99.90;;;;;;5050860;28;19963;-74
2022/03/12 01:31:26;;;;;;;;;;;-3.10;99.90;;;;;;5051124;28;19909;-73
2022/03/12 01:33:51;;;;;;;;;;;-3.10;99.90;;;;;;5050567;28;19909;-74
2022/03/12 01:36:17;;;;;;;;;;;-3.10;99.90;;;;;;5050963;28;19916;-73
2022/03/12 01:38:50;;;;;;;;;;;-3.00;99.90;;;;;;5050533;28;19920;-74
2022/03/12 01:41:19;;;;;;;;;;;-2.90;99.90;;;;;;5050818;28;19915;-73
2022/03/12 01:43:45;;;;;;;;;;;-2.90;99.90;;;;;;5050227;28;20284;-74
2022/03/12 01:46:11;;;;;;;;;;;-2.80;99.90;;;;;;5050170;28;20368;-73
2022/03/12 01:48:41;;;;;;;;;;;-2.80;99.90;;;;;;5050648;28;19920;-73
2022/03/12 01:51:06;;;;;;;;;;;-2.80;99.90;;;;;;5052095;28;20275;-75
2022/03/12 01:53:32;;;;;;;;;;;-2.80;99.90;;;;;;5050602;28;19916;-74
2022/03/12 01:55:58;;;;;;;;;;;-2.70;99.90;;;;;;5050270;28;19963;-73
2022/03/12 01:58:24;;;;;;;;;;;-2.70;99.90;;;;;;5050537;28;20382;-74
2022/03/12 02:00:53;;;;;;;;;;;-2.70;99.90;;;;;;5050095;28;20067;-74
2022/03/12 02:03:23;;;;;;;;;;;-2.70;99.90;;;;;;5049921;28;19929;-74
2022/03/12 02:05:51;;;;;;;;;;;-2.70;99.90;;;;;;5049785;28;20357;-75
2022/03/12 02:08:17;;;;;;;;;;;-2.70;99.90;;;;;;5050321;28;20000;-74
2022/03/12 02:10:43;;;;;;;;;;;-2.70;99.90;;;;;;5051593;28;19956;-75
2022/03/12 02:13:09;;;;;;;;;;;-2.70;99.90;;;;;;5050371;28;20296;-74
2022/03/12 02:15:35;;;;;;;;;;;-2.70;99.90;;;;;;5050194;28;19913;-74
2022/03/12 02:18:01;;;;;;;;;;;-2.80;99.90;;;;;;5050083;28;19920;-75
2022/03/12 02:20:27;;;;;;;;;;;-2.70;99.90;;;;;;5051501;28;19913;-74
2022/03/12 02:22:54;;;;;;;;;;;-2.70;99.90;;;;;;5051583;28;19916;-74
2022/03/12 02:25:27;;;;;;;;;;;-2.70;99.90;;;;;;5050128;28;20311;-75
2022/03/12 02:27:54;;;;;;;;;;;-2.70;99.90;;;;;;5049644;28;20347;-74
2022/03/12 02:30:20;;;;;;;;;;;-2.70;99.90;;;;;;5051417;28;20477;-74
2022/03/12 02:32:46;;;;;;;;;;;-2.70;99.90;;;;;;5051442;28;19920;-74
2022/03/12 02:35:13;;;;;;;;;;;-2.70;99.90;;;;;;5049788;28;20039;-75
2022/03/12 02:37:43;;;;;;;;;;;-2.80;99.90;;;;;;5051373;28;19913;-74
2022/03/12 02:40:09;;;;;;;;;;;-4.00;99.90;;;;;;5051285;28;20031;-74
2022/03/12 02:42:39;;;;;;;;;;;-2.80;99.90;;;;;;5051222;28;20357;-74
2022/03/12 02:45:07;;;;;;;;;;;-2.90;99.90;;;;;;5050906;28;19913;-74
2022/03/12 02:47:34;;;;;;;;;;;-2.90;99.90;;;;;;5051279;28;19921;-74
2022/03/12 02:50:07;;;;;;;;;;;-2.90;99.90;;;;;;5049774;28;19973;-76
2022/03/12 02:52:36;;;;;;;;;;;-2.80;99.90;;;;;;5049826;28;19917;-74
2022/03/12 02:55:02;;;;;;;;;;;-2.80;99.90;;;;;;5051222;28;19920;-73
2022/03/12 02:57:29;;;;;;;;;;;-2.70;99.90;;;;;;5055126;28;19916;-74
2022/03/12 02:59:55;;;;;;;;;;;-2.70;99.90;;;;;;5054953;28;19920;-74
2022/03/12 03:02:25;;;;;;;;;;;-2.60;99.90;;;;;;5054993;28;19924;-75
2022/03/12 03:04:51;;;;;;;;;;;-2.60;99.90;;;;;;5054970;28;19916;-75
2022/03/12 03:07:17;;;;;;;;;;;-2.60;99.90;;;;;;5054915;28;19919;-75
2022/03/12 03:09:42;;;;;;;;;;;-2.60;99.90;;;;;;5053408;28;19970;-75
2022/03/12 03:12:10;;;;;;;;;;;-2.60;99.90;;;;;;5055227;28;19920;-74
2022/03/12 03:14:38;;;;;;;;;;;-2.60;99.90;;;;;;5053323;28;20379;-75
2022/03/12 03:17:05;;;;;;;;;;;-2.60;99.90;;;;;;5053434;28;19912;-76
2022/03/12 03:19:34;;;;;;;;;;;-2.60;99.90;;;;;;5053148;28;20004;-73
2022/03/12 03:21:59;;;;;;;;;;;-2.60;99.90;;;;;;5054978;28;20273;-74
2022/03/12 03:24:26;;;;;;;;;;;-2.60;99.90;;;;;;5054461;28;19928;-74
2022/03/12 03:26:53;;;;;;;;;;;-2.60;99.90;;;;;;5054451;28;19909;-74
2022/03/12 03:29:21;;;;;;;;;;;-2.50;99.90;;;;;;5054299;28;19975;-73
2022/03/12 03:31:47;;;;;;;;;;;-2.50;99.90;;;;;;5054322;28;20353;-74
2022/03/12 03:34:14;;;;;;;;;;;-2.50;99.90;;;;;;5052892;28;19996;-74
2022/03/12 03:36:40;;;;;;;;;;;-2.40;99.90;;;;;;5054368;28;19909;-74
2022/03/12 03:39:06;;;;;;;;;;;-2.40;99.90;;;;;;5054218;28;20009;-75
2022/03/12 03:41:33;;;;;;;;;;;-2.40;99.90;;;;;;5054189;28;19947;-75
2022/03/12 03:43:59;;;;;;;;;;;-2.40;99.90;;;;;;5053912;28;20366;-75
2022/03/12 03:46:24;;;;;;;;;;;-2.40;99.90;;;;;;5054105;28;20292;-74
2022/03/12 03:48:51;;;;;;;;;;;-2.50;99.90;;;;;;5053970;28;19927;-75
2022/03/12 03:51:17;;;;;;;;;;;-2.40;99.90;;;;;;5052787;28;19913;-75
2022/03/12 03:53:43;;;;;;;;;;;-2.40;99.90;;;;;;5053949;28;20026;-75
2022/03/12 03:56:09;;;;;;;;;;;-2.30;99.90;;;;;;5053956;28;19909;-74
2022/03/12 03:58:35;;;;;;;;;;;-2.30;99.90;;;;;;5054409;28;20335;-74
2022/03/12 04:01:01;;;;;;;;;;;-2.20;99.90;;;;;;5052468;28;19944;-74
2022/03/12 04:03:37;;;;;;;;;;;-2.20;99.90;;;;;;5054166;28;19920;-74
2022/03/12 04:06:04;;;;;;;;;;;-2.10;99.90;;;;;;5052292;28;19921;-74
2022/03/12 04:08:30;;;;;;;;;;;-2.10;99.90;;;;;;5052113;28;19915;-74
2022/03/12 04:10:56;;;;;;;;;;;-2.00;99.90;;;;;;5053589;28;19960;-74
2022/03/12 04:13:22;;;;;;;;;;;-2.10;99.90;;;;;;5054040;28;19948;-74
2022/03/12 04:15:49;;;;;;;;;;;-2.10;99.90;;;;;;5053620;28;19956;-75
2022/03/12 04:18:15;;;;;;;;;;;-2.00;99.90;;;;;;5053341;28;20365;-74
2022/03/12 04:20:42;;;;;;;;;;;-2.10;99.90;;;;;;5052068;28;19917;-74
2022/03/12 04:23:11;;;;;;;;;;;-2.10;99.90;;;;;;5052105;28;19938;-75
2022/03/12 04:25:37;;;;;;;;;;;-2.10;99.90;;;;;;5051852;28;19956;-75
2022/03/12 04:28:02;;;;;;;;;;;-2.10;99.90;;;;;;5052018;28;20361;-74
2022/03/12 04:30:31;;;;;;;;;;;-2.10;99.90;;;;;;5051969;28;19921;-74
2022/03/12 04:32:56;;;;;;;;;;;-2.20;99.90;;;;;;5051662;28;20211;-76
2022/03/12 04:35:23;;;;;;;;;;;-2.20;99.90;;;;;;5053003;28;20015;-74
2022/03/12 04:37:49;;;;;;;;;;;-2.20;99.90;;;;;;5051803;28;19913;-75
2022/03/12 04:40:16;;;;;;;;;;;-2.30;99.90;;;;;;5053127;28;19917;-75
2022/03/12 04:42:44;;;;;;;;;;;-2.30;99.90;;;;;;5051700;28;20270;-75
2022/03/12 04:45:11;;;;;;;;;;;-2.30;99.90;;;;;;5051643;28;19928;-75
2022/03/12 04:47:37;;;;;;;;;;;-2.30;99.90;;;;;;5053187;28;19909;-74
2022/03/12 04:50:04;;;;;;;;;;;-2.30;99.90;;;;;;5052759;28;19924;-74
2022/03/12 04:52:30;;;;;;;;;;;-2.30;99.90;;;;;;5053098;28;19912;-74
2022/03/12 04:54:56;;;;;;;;;;;-2.30;99.90;;;;;;5052774;28;19930;-74
2022/03/12 04:57:22;;;;;;;;;;;-2.40;99.90;;;;;;5052789;28;20268;-74
2022/03/12 04:59:47;;;;;;;;;;;-2.40;99.90;;;;;;5051129;28;19944;-75
2022/03/12 05:02:13;;;;;;;;;;;-2.40;99.90;;;;;;5050976;28;20034;-74
2022/03/12 05:04:39;;;;;;;;;;;-2.40;99.90;;;;;;5051252;28;19924;-73
2022/03/12 05:07:09;;;;;;;;;;;-2.40;99.90;;;;;;5050980;28;19912;-74
2022/03/12 05:09:35;;;;;;;;;;;-2.50;99.90;;;;;;5051347;28;19919;-75
2022/03/12 05:12:05;;;;;;;;;;;-2.50;99.90;;;;;;5052657;28;19996;-75
2022/03/12 05:14:35;;;;;;;;;;;-2.50;99.90;;;;;;5052486;28;19917;-75
2022/03/12 05:17:04;;;;;;;;;;;-2.50;99.90;;;;;;5052280;28;20352;-75
2022/03/12 05:19:30;;;;;;;;;;;-2.50;99.90;;;;;;5051334;28;20384;-75
2022/03/12 05:21:55;;;;;;;;;;;-2.60;99.90;;;;;;5052238;28;19924;-74
2022/03/12 05:24:21;;;;;;;;;;;-2.60;99.90;;;;;;5052147;28;19975;-75
2022/03/12 05:26:47;;;;;;;;;;;-2.50;99.90;;;;;;5050717;28;19913;-75
2022/03/12 05:29:12;;;;;;;;;;;-2.60;99.90;;;;;;5052039;28;19916;-74
2022/03/12 05:31:38;;;;;;;;;;;-2.50;99.90;;;;;;5051841;28;19945;-74
2022/03/12 05:34:05;;;;;;;;;;;-2.50;99.90;;;;;;5052084;28;19913;-74
2022/03/12 05:36:30;;;;;;;;;;;-2.40;99.90;;;;;;5052033;28;19913;-74
2022/03/12 05:38:56;;;;;;;;;;;-2.30;99.90;;;;;;5050506;28;20007;-75
2022/03/12 05:41:22;;;;;;;;;;;-2.20;99.90;;;;;;5052084;28;20038;-74
2022/03/12 05:43:49;;;;;;;;;;;-2.20;99.90;;;;;;5050505;28;20433;-74
2022/03/12 05:46:16;;;;;;;;;;;-2.10;99.90;;;;;;5051807;28;19947;-74
2022/03/12 05:48:42;;;;;;;;;;;-2.10;99.90;;;;;;5050492;28;19919;-74
2022/03/12 05:51:09;;;;;;;;;;;-2.00;99.90;;;;;;5051609;28;19909;-74
2022/03/12 05:53:36;;;;;;;;;;;-1.90;99.90;;;;;;5052069;28;19917;-74
2022/03/12 05:56:02;;;;;;;;;;;-1.70;99.90;;;;;;5050184;28;19966;-74
2022/03/12 05:58:27;;;;;;;;;;;-1.50;99.90;;;;;;5052012;28;19950;-75
2022/03/12 06:00:54;;;;;;;;;;;-1.20;99.90;;;;;;5050017;28;19967;-75
2022/03/12 06:03:20;;;;;;;;;;;-1.10;99.90;;;;;;5050242;28;20364;-75
2022/03/12 06:05:50;;;;;;;;;;;-0.90;99.90;;;;;;5050168;28;19995;-75
2022/03/12 06:08:21;;;;;;;;;;;-0.80;99.90;;;;;;5051748;28;20388;-75
2022/03/12 06:10:52;;;;;;;;;;;-0.60;99.90;;;;;;5051372;28;19920;-75
2022/03/12 06:13:20;;;;;;;;;;;-0.50;99.50;;;;;;5051968;28;19912;-75
2022/03/12 06:15:55;;;;;;;;;;;-0.50;99.40;;;;;;5049880;28;19951;-74
2022/03/12 06:18:22;;;;;;;;;;;-0.40;99.20;;;;;;5051777;28;19916;-74
2022/03/12 06:20:47;;;;;;;;;;;-0.30;98.70;;;;;;5050247;28;19919;-75
2022/03/12 06:23:13;;;;;;;;;;;-0.10;98.40;;;;;;5051943;28;19917;-76
2022/03/12 06:25:38;;;;;;;;;;;0.20;97.80;;;;;;5051507;28;19917;-75
2022/03/12 06:28:07;;;;;;;;;;;0.40;97.40;;;;;;5051572;28;19924;-74
2022/03/12 06:30:33;;;;;;;;;;;0.60;96.80;;;;;;5050283;28;19923;-74
2022/03/12 06:33:00;;;;;;;;;;;0.70;96.30;;;;;;5053700;28;19917;-75
2022/03/12 06:35:26;;;;;;;;;;;0.80;95.60;;;;;;5055703;28;19917;-75
2022/03/12 06:37:52;;;;;;;;;;;1.00;95.40;;;;;;5055769;28;19919;-75
2022/03/12 06:40:18;;;;;;;;;;;1.20;95.10;;;;;;5054127;28;19912;-74
2022/03/12 06:42:45;;;;;;;;;;;1.30;94.30;;;;;;5055001;28;19917;-73
2022/03/12 06:45:15;;;;;;;;;;;1.40;94.00;;;;;;5055355;28;19913;-73
2022/03/12 06:47:42;;;;;;;;;;;1.60;93.50;;;;;;5055175;28;19916;-74
2022/03/12 06:50:09;;;;;;;;;;;1.70;93.10;;;;;;5055100;28;20287;-75
2022/03/12 06:52:35;;;;;;;;;;;2.00;92.90;;;;;;5053798;28;19917;-74
2022/03/12 06:55:01;;;;;;;;;;;2.10;92.20;;;;;;5053513;28;19962;-73
2022/03/12 06:57:26;;;;;;;;;;;2.20;91.90;;;;;;5053473;28;20327;-73
2022/03/12 06:59:52;;;;;;;;;;;2.20;91.70;;;;;;5054883;28;20008;-74
2022/03/12 07:02:18;;;;;;;;;;;2.30;91.80;;;;;;5053055;28;19925;-73
2022/03/12 07:04:43;;;;;;;;;;;2.40;91.40;;;;;;5054964;28;19917;-74
2022/03/12 07:07:09;;;;;;;;;;;2.50;91.10;;;;;;5053317;28;19999;-75
2022/03/12 07:09:35;;;;;;;;;;;2.50;91.30;;;;;;5053384;28;20327;-73
2022/03/12 07:12:03;;;;;;;;;;;2.60;91.00;;;;;;5054679;28;19913;-73
2022/03/12 07:14:29;;;;;;;;;;;2.80;90.60;;;;;;5054625;28;19953;-74
2022/03/12 07:16:55;;;;;;;;;;;4.30;91.20;;;;;;5052999;28;19971;-74
2022/03/12 07:19:21;;;;;;;;;;;3.00;90.30;;;;;;5053628;28;19966;-75
2022/03/12 07:21:46;;;;;;;;;;;3.00;90.20;;;;;;5053562;28;19932;-75
2022/03/12 07:24:12;;;;;;;;;;;3.00;89.90;;;;;;5053404;28;19920;-75
2022/03/12 07:26:39;;;;;;;;;;;2.90;90.00;;;;;;5054590;28;19924;-75
2022/03/12 07:29:05;;;;;;;;;;;2.80;90.00;;;;;;5053060;28;19913;-75
2022/03/12 07:31:30;;;;;;;;;;;2.70;90.00;;;;;;5054273;28;19916;-75
2022/03/12 07:33:56;;;;;;;;;;;2.50;90.20;;;;;;5052777;28;19917;-74
2022/03/12 07:36:22;;;;;;;;;;;2.50;90.50;;;;;;5052745;28;19932;-72
2022/03/12 07:38:47;;;;;;;;;;;2.60;90.60;;;;;;5053983;28;19917;-73
2022/03/12 07:41:13;;;;;;;;;;;2.70;90.60;;;;;;5053985;28;20415;-73
2022/03/12 07:43:39;;;;;;;;;;;2.70;90.00;;;;;;5051337;28;19983;-74
2022/03/12 07:46:05;;;;;;;;;;;2.60;89.90;;;;;;5054218;28;19909;-75
2022/03/12 07:48:31;;;;;;;;;;;2.60;90.00;;;;;;5052879;28;19909;-76
2022/03/12 07:51:00;;;;;;;;;;;2.90;89.30;;;;;;5053413;28;19923;-75
2022/03/12 07:53:26;;;;;;;;;;;2.80;88.20;;;;;;5053884;28;19952;-74
2022/03/12 07:55:51;;;;;;;;;;;2.80;87.70;;;;;;5053710;28;19940;-74
2022/03/12 07:58:17;;;;;;;;;;;2.90;88.10;;;;;;5054020;28;19913;-74
2022/03/12 08:00:43;;;;;;;;;;;2.90;87.70;;;;;;5052142;28;19917;-73
2022/03/12 08:03:09;;;;;;;;;;;3.10;87.50;;;;;;5052294;28;19925;-74
2022/03/12 08:05:35;;;;;;;;;;;3.30;86.40;;;;;;5053672;28;19913;-75
2022/03/12 08:08:02;;;;;;;;;;;3.50;86.30;;;;;;5053764;28;20276;-75
2022/03/12 08:10:28;;;;;;;;;;;3.70;85.50;;;;;;5053519;28;19912;-74
2022/03/12 08:12:54;;;;;;;;;;;3.70;85.50;;;;;;5053796;28;19923;-75
2022/03/12 08:15:23;;;;;;;;;;;3.90;85.00;;;;;;5053746;28;19941;-75
2022/03/12 08:17:48;;;;;;;;;;;4.20;85.10;;;;;;5052268;28;19990;-74
2022/03/12 08:20:14;;;;;;;;;;;4.40;83.10;;;;;;5053250;28;19913;-75
2022/03/12 08:22:41;;;;;;;;;;;4.30;83.10;;;;;;5052074;28;19913;-74
2022/03/12 08:25:08;;;;;;;;;;;4.30;83.10;;;;;;5053285;28;20262;-73
2022/03/12 08:27:35;;;;;;;;;;;4.20;82.70;;;;;;5051899;28;19913;-74
2022/03/12 08:30:02;;;;;;;;;;;4.30;84.40;;;;;;5053065;28;19920;-74
2022/03/12 08:32:27;;;;;;;;;;;4.60;83.00;;;;;;5053272;28;20260;-73
2022/03/12 08:34:53;;;;;;;;;;;5.00;82.00;;;;;;5053062;28;19913;-74
2022/03/12 08:37:21;;;;;;;;;;;5.20;80.80;;;;;;5051837;28;19939;-73
2022/03/12 08:39:47;;;;;;;;;;;5.40;80.00;;;;;;5052926;28;20435;-73
2022/03/12 08:42:13;;;;;;;;;;;5.60;80.20;;;;;;5053173;28;20150;-74
2022/03/12 08:44:39;;;;;;;;;;;5.60;77.90;;;;;;5051546;28;20392;-73
2022/03/12 08:47:05;;;;;;;;;;;5.80;78.30;;;;;;5051625;28;20360;-73
2022/03/12 08:49:31;;;;;;;;;;;5.90;78.10;;;;;;5051337;28;19919;-73
2022/03/12 08:51:58;;;;;;;;;;;6.00;75.80;;;;;;5052892;28;20321;-72
2022/03/12 08:54:24;;;;;;;;;;;6.10;77.40;;;;;;5052416;28;19917;-74
2022/03/12 08:56:49;;;;;;;;;;;6.30;76.20;;;;;;5052759;28;19913;-73
2022/03/12 08:59:15;;;;;;;;;;;6.50;75.80;;;;;;5051069;28;19912;-74
2022/03/12 09:01:43;;;;;;;;;;;6.50;76.80;;;;;;5052470;28;20284;-72
2022/03/12 09:04:09;;;;;;;;;;;6.90;76.40;;;;;;5052912;28;20368;-71
2022/03/12 09:06:34;;;;;;;;;;;7.30;75.50;;;;;;5052378;28;19917;-74
2022/03/12 09:09:00;;;;;;;;;;;7.70;72.30;;;;;;5052350;28;19942;-74
2022/03/12 09:11:26;;;;;;;;;;;7.90;72.00;;;;;;5050961;28;20533;-74
2022/03/12 09:13:52;;;;;;;;;;;8.00;70.60;;;;;;5050901;28;19913;-73
2022/03/12 09:16:18;;;;;;;;;;;7.90;68.60;;;;;;5051134;28;19916;-73
2022/03/12 09:18:46;;;;;;;;;;;7.90;67.60;;;;;;5052563;28;19913;-74
2022/03/12 09:21:12;;;;;;;;;;;8.00;66.70;;;;;;5052346;28;19908;-73
2022/03/12 09:23:38;;;;;;;;;;;8.10;64.60;;;;;;5050795;28;19917;-74
2022/03/12 09:26:05;;;;;;;;;;;8.00;66.30;;;;;;5051913;28;19913;-73
2022/03/12 09:28:30;;;;;;;;;;;8.00;64.60;;;;;;5050901;28;19913;-74
2022/03/12 09:30:56;;;;;;;;;;;7.90;65.10;;;;;;5050668;28;19920;-75
2022/03/12 09:33:22;;;;;;;;;;;7.70;64.60;;;;;;5051892;28;19963;-74
2022/03/12 09:35:49;;;;;;;;;;;7.90;64.10;;;;;;5051832;28;19919;-73
2022/03/12 09:38:17;;;;;;;;;;;7.90;61.20;;;;;;5052385;28;19913;-75
2022/03/12 09:40:43;;;;;;;;;;;7.80;61.90;;;;;;5051900;28;19913;-74
2022/03/12 09:43:09;;;;;;;;;;;8.00;61.20;;;;;;5050510;28;19925;-74
2022/03/12 09:45:35;;;;;;;;;;;7.80;60.40;;;;;;5052070;28;20002;-76
2022/03/12 09:48:00;;;;;;;;;;;7.60;61.10;;;;;;5051104;28;19936;-75
2022/03/12 09:50:26;;;;;;;;;;;7.50;61.10;;;;;;5051886;28;20007;-77
2022/03/12 09:52:54;;;;;;;;;;;7.40;61.80;;;;;;5050824;28;19951;-75
2022/03/12 09:55:22;;;;;;;;;;;7.20;61.40;;;;;;5051644;28;19917;-76
2022/03/12 09:57:48;;;;;;;;;;;7.00;61.00;;;;;;5052067;28;20016;-75
2022/03/12 10:00:14;;;;;;;;;;;7.10;62.70;;;;;;5051731;28;19999;-74
2022/03/12 10:02:40;;;;;;;;;;;7.60;61.10;;;;;;5051576;28;19967;-75
2022/03/12 10:05:07;;;;;;;;;;;7.90;61.90;;;;;;5049699;28;19960;-76
2022/03/12 10:07:32;;;;;;;;;;;8.00;61.90;;;;;;5051721;28;19913;-75
2022/03/12 10:09:58;;;;;;;;;;;7.80;61.50;;;;;;5050269;28;19913;-74
2022/03/12 10:12:24;;;;;;;;;;;7.90;61.20;;;;;;5050206;28;19913;-75
2022/03/12 10:14:49;;;;;;;;;;;8.20;62.20;;;;;;5051447;28;19981;-77
2022/03/12 10:17:17;;;;;;;;;;;8.40;61.10;;;;;;5050554;28;19917;-77
2022/03/12 10:19:44;;;;;;;;;;;8.70;61.90;;;;;;5051626;28;19935;-75
2022/03/12 10:22:10;;;;;;;;;;;8.80;59.70;;;;;;5051625;28;19913;-75
2022/03/12 10:24:36;;;;;;;;;;;8.50;59.90;;;;;;5049712;28;20384;-75
2022/03/12 10:27:02;;;;;;;;;;;8.20;61.30;;;;;;5051003;28;20317;-74
2022/03/12 10:29:28;;;;;;;;;;;8.40;62.40;;;;;;5051069;28;19917;-74
2022/03/12 10:31:54;;;;;;;;;;;8.30;61.10;;;;;;5049707;28;19913;-75
2022/03/12 10:34:21;;;;;;;;;;;8.20;62.00;;;;;;5049818;28;19917;-75
2022/03/12 10:36:48;;;;;;;;;;;8.20;62.50;;;;;;5049717;28;19913;-75
2022/03/12 10:39:14;;;;;;;;;;;8.50;61.50;;;;;;5049992;28;19913;-74
2022/03/12 10:41:39;;;;;;;;;;;8.80;61.10;;;;;;5049897;28;19924;-75
2022/03/12 10:44:06;;;;;;;;;;;8.80;62.40;;;;;;5049742;28;19917;-74
2022/03/12 10:46:32;;;;;;;;;;;9.00;59.80;;;;;;5051314;28;19952;-74
2022/03/12 10:48:59;;;;;;;;;;;8.90;60.70;;;;;;5049750;28;20039;-74
2022/03/12 10:51:26;;;;;;;;;;;8.90;60.70;;;;;;5051008;28;20361;-74
2022/03/12 10:53:59;;;;;;;;;;;8.80;62.30;;;;;;5050998;28;19913;-75
2022/03/12 10:56:36;;;;;;;;;;;8.80;63.00;;;;;;5049885;28;19916;-75
2022/03/12 10:59:09;;;;;;;;;;;8.50;62.80;;;;;;5051255;28;20395;-75
2022/03/12 11:01:34;;;;;;;;;;;8.30;64.10;;;;;;5051019;28;20280;-74
2022/03/12 11:04:00;;;;;;;;;;;8.40;64.20;;;;;;5050812;28;19921;-76
2022/03/12 11:06:25;;;;;;;;;;;8.10;63.90;;;;;;5051125;28;19987;-75
2022/03/12 11:08:51;;;;;;;;;;;8.00;64.40;;;;;;5049860;28;19917;-76
2022/03/12 11:11:17;;;;;;;;;;;8.10;64.40;;;;;;5050897;28;19916;-75
2022/03/12 11:13:46;;;;;;;;;;;8.30;64.40;;;;;;5051127;28;19947;-75
2022/03/12 11:16:18;;;;;;;;;;;8.30;64.50;;;;;;5050767;28;20004;-74
2022/03/12 11:19:12;;;;;;;;;;;8.50;64.20;;;;;;5054527;28;20376;-76
2022/03/12 11:21:43;;;;;;;;;;;8.50;64.50;;;;;;5054521;28;20254;-74
2022/03/12 11:24:14;;;;;;;;;;;8.60;64.40;;;;;;5054494;28;19917;-74
2022/03/12 11:26:58;;;;;;;;;;;8.20;65.00;;;;;;5054645;28;20341;-74
2022/03/12 11:29:26;;;;;;;;;;;8.10;65.50;;;;;;5052917;28;19914;-74
2022/03/12 11:31:52;;;;;;;;;;;7.60;65.50;;;;;;5054342;28;20307;-75
2022/03/12 11:34:25;;;;;;;;;;;7.30;67.30;;;;;;5053013;28;20007;-74
2022/03/12 11:36:54;;;;;;;;;;;7.20;68.20;;;;;;5054116;28;19916;-75
2022/03/12 11:39:26;;;;;;;;;;;7.20;67.70;;;;;;5054112;28;20008;-75
2022/03/12 11:42:02;;;;;;;;;;;7.10;68.20;;;;;;5054287;28;19917;-76
2022/03/12 11:44:29;;;;;;;;;;;7.00;68.30;;;;;;5052673;28;19917;-73
2022/03/12 11:46:56;;;;;;;;;;;6.90;68.90;;;;;;5053855;28;20636;-74
2022/03/12 11:49:22;;;;;;;;;;;6.90;68.80;;;;;;5052891;28;19913;-75
2022/03/12 11:51:48;;;;;;;;;;;6.80;69.70;;;;;;5053935;28;20000;-74
2022/03/12 11:54:14;;;;;;;;;;;6.80;70.10;;;;;;5053686;28;19913;-74
2022/03/12 11:56:40;;;;;;;;;;;6.80;69.40;;;;;;5052270;28;19920;-74
2022/03/12 11:59:06;;;;;;;;;;;6.70;70.00;;;;;;5053858;28;20054;-74
2022/03/12 12:01:35;;;;;;;;;;;6.50;71.50;;;;;;5052215;28;20280;-75
2022/03/12 12:04:01;;;;;;;;;;;6.50;71.40;;;;;;5052395;28;19920;-74
2022/03/12 12:06:26;;;;;;;;;;;6.50;71.50;;;;;;5052199;28;19913;-75
2022/03/12 12:08:53;;;;;;;;;;;6.40;71.90;;;;;;5052300;28;19924;-75
2022/03/12 12:11:18;;;;;;;;;;;6.40;72.20;;;;;;5052004;28;19938;-74
2022/03/12 12:13:44;;;;;;;;;;;6.40;72.50;;;;;;5052224;28;19970;-75
2022/03/12 12:16:11;;;;;;;;;;;6.50;72.70;;;;;;5052201;28;19909;-74
2022/03/12 12:18:37;;;;;;;;;;;6.40;73.00;;;;;;5053916;28;19913;-75
2022/03/12 12:21:03;;;;;;;;;;;6.40;73.70;;;;;;5053570;28;19939;-74
2022/03/12 12:23:29;;;;;;;;;;;6.40;73.50;;;;;;5053205;28;19917;-74
2022/03/12 12:26:08;;;;;;;;;;;6.30;73.70;;;;;;5053194;28;20507;-75
2022/03/12 12:28:45;;;;;;;;;;;6.20;73.80;;;;;;5051360;28;19917;-74
2022/03/12 12:31:22;;;;;;;;;;;6.20;74.00;;;;;;5051879;28;19932;-75
2022/03/12 12:33:48;;;;;;;;;;;6.20;74.30;;;;;;5051636;28;19917;-75
2022/03/12 12:36:15;;;;;;;;;;;6.30;74.80;;;;;;5052959;28;19996;-74
2022/03/12 12:38:52;;;;;;;;;;;6.20;75.00;;;;;;5052994;28;20341;-74
2022/03/12 12:41:17;;;;;;;;;;;6.10;75.30;;;;;;5051561;28;19970;-74
2022/03/12 12:43:46;;;;;;;;;;;6.20;75.60;;;;;;5051509;28;19960;-74
2022/03/12 12:46:12;;;;;;;;;;;6.30;75.50;;;;;;5051623;28;20408;-74
2022/03/12 12:48:43;;;;;;;;;;;6.40;75.30;;;;;;5051423;28;20281;-75
2022/03/12 12:51:22;;;;;;;;;;;6.40;75.30;;;;;;5051517;28;19913;-74
2022/03/12 12:53:48;;;;;;;;;;;6.40;75.50;;;;;;5052674;28;19917;-74
2022/03/12 12:56:38;;;;;;;;;;;6.20;75.40;;;;;;5052710;28;19908;-74
2022/03/12 12:59:05;;;;;;;;;;;6.30;76.20;;;;;;5051507;28;19945;-74
2022/03/12 13:01:40;;;;;;;;;;;6.10;76.00;;;;;;5052591;28;19973;-73
2022/03/12 13:04:06;;;;;;;;;;;6.10;76.40;;;;;;5051236;28;19947;-74
2022/03/12 13:06:35;;;;;;;;;;;6.00;76.50;;;;;;5052547;28;19909;-75
2022/03/12 13:09:05;;;;;;;;;;;5.90;76.90;;;;;;5052448;28;19917;-75
2022/03/12 13:11:35;;;;;;;;;;;5.90;77.20;;;;;;5051028;28;19909;-75
2022/03/12 13:14:01;;;;;;;;;;;5.80;76.70;;;;;;5052293;28;19936;-74
2022/03/12 13:16:28;;;;;;;;;;;5.80;77.40;;;;;;5052303;28;19913;-73
2022/03/12 13:18:53;;;;;;;;;;;5.70;76.90;;;;;;5050863;28;19923;-73
2022/03/12 13:21:35;;;;;;;;;;;5.70;77.00;;;;;;5050690;28;19912;-74
2022/03/12 13:24:07;;;;;;;;;;;5.70;76.70;;;;;;5051874;28;20410;-73
2022/03/12 13:26:37;;;;;;;;;;;5.70;77.00;;;;;;5050908;28;19948;-74
2022/03/12 13:29:09;;;;;;;;;;;5.80;76.30;;;;;;5052049;28;20252;-73
2022/03/12 13:31:35;;;;;;;;;;;5.80;76.30;;;;;;5052138;28;19942;-75
2022/03/12 13:34:03;;;;;;;;;;;5.80;76.20;;;;;;5051898;28;19916;-75
2022/03/12 13:36:31;;;;;;;;;;;5.70;76.00;;;;;;5050648;28;20373;-75
2022/03/12 13:38:57;;;;;;;;;;;5.60;76.50;;;;;;5051830;28;19940;-75
2022/03/12 13:41:23;;;;;;;;;;;5.50;76.20;;;;;;5049631;28;19909;-74
2022/03/12 13:43:53;;;;;;;;;;;5.40;76.40;;;;;;5050273;28;20438;-74
2022/03/12 13:46:28;;;;;;;;;;;5.40;76.60;;;;;;5051782;28;19916;-74
2022/03/12 13:49:01;;;;;;;;;;;5.30;77.60;;;;;;5050550;28;19917;-73
2022/03/12 13:51:27;;;;;;;;;;;5.30;77.70;;;;;;5051818;28;20379;-75
2022/03/12 13:53:56;;;;;;;;;;;5.30;77.80;;;;;;5050359;28;19940;-74
2022/03/12 13:56:24;;;;;;;;;;;5.30;77.90;;;;;;5050302;28;19916;-74
2022/03/12 13:58:53;;;;;;;;;;;5.40;78.10;;;;;;5050222;28;19925;-74
2022/03/12 14:01:29;;;;;;;;;;;5.40;78.90;;;;;;5051568;28;19921;-75
2022/03/12 14:03:55;;;;;;;;;;;5.30;79.40;;;;;;5050066;28;19921;-74
2022/03/12 14:06:28;;;;;;;;;;;5.20;80.40;;;;;;5052016;28;19909;-74
2022/03/12 14:08:55;;;;;;;;;;;5.10;80.80;;;;;;5051392;28;19967;-74
2022/03/12 14:11:47;;;;;;;;;;;5.00;82.70;;;;;;5049969;28;20372;-74
2022/03/12 14:14:14;;;;;;;;;;;4.90;82.50;;;;;;5049114;28;19956;-75
2022/03/12 14:16:43;;;;;;;;;;;4.90;83.20;;;;;;5051454;28;19999;-73
2022/03/12 14:19:10;;;;;;;;;;;4.80;84.10;;;;;;5050128;28;20434;-75
2022/03/12 14:21:38;;;;;;;;;;;4.70;84.60;;;;;;5050024;28;19983;-74
2022/03/12 14:24:10;;;;;;;;;;;4.60;85.30;;;;;;5051138;28;20380;-74